sensor_id;sensor_type;location;lat;lon;timestamp;temperature;humidity
7016;DHT22;3548;48.402;9.990;2023-09-08T00:01:25;15.80;99.90
7016;DHT22;3548;48.402;9.990;2023-09-08T00:03:51;15.70;99.90
7016;DHT22;3548;48.402;9.990;2023-09-08T00:06:18;15.70;99.90
7016;DHT22;3548;48.402;9.990;2023-09-08T00:08:44;15.60;99.90
7016;DHT22;3548;48.402;9.990;2023-09-08T00:11:10;15.60;99.90
7016;DHT22;3548;48.402;9.990;2023-09-08T00:13:35;15.60;99.90
7016;DHT22;3548;48.402;9.990;2023-09-08T00:16:01;15.50;99.90
7016;DHT22;3548;48.402;9.990;2023-09-08T00:18:26;15.50;99.90
7016;DHT22;3548;48.402;9.990;2023-09-08T00:20:52;15.50;99.90
7016;DHT22;3548;48.402;9.990;2023-09-08T00:23:17;15.50;99.90
7016;DHT22;3548;48.402;9.990;2023-09-08T00:25:43;15.50;99.90
7016;DHT22;3548;48.402;9.990;2023-09-08T00:28:09;15.50;99.90
7016;DHT22;3548;48.402;9.990;2023-09-08T00:30:34;15.40;99.90
7016;DHT22;3548;48.402;9.990;2023-09-08T00:33:00;15.40;99.90
7016;DHT22;3548;48.402;9.990;2023-09-08T00:35:25;15.40;99.90
7016;DHT22;3548;48.402;9.990;2023-09-08T00:37:51;15.30;99.90
7016;DHT22;3548;48.402;9.990;2023-09-08T00:40:17;15.30;99.90
7016;DHT22;3548;48.402;9.990;2023-09-08T00:42:42;15.20;99.90
7016;DHT22;3548;48.402;9.990;2023-09-08T00:45:08;15.20;99.90
7016;DHT22;3548;48.402;9.990;2023-09-08T00:47:34;15.20;99.90
7016;DHT22;3548;48.402;9.990;2023-09-08T00:50:04;15.20;99.90
7016;DHT22;3548;48.402;9.990;2023-09-08T00:52:30;15.10;99.90
7016;DHT22;3548;48.402;9.990;2023-09-08T00:54:56;15.10;99.90
7016;DHT22;3548;48.402;9.990;2023-09-08T00:57:22;15.10;99.90
7016;DHT22;3548;48.402;9.990;2023-09-08T00:59:47;15.10;99.90
7016;DHT22;3548;48.402;9.990;2023-09-08T01:02:13;15.10;99.90
7016;DHT22;3548;48.402;9.990;2023-09-08T01:04:39;15.10;99.90
7016;DHT22;3548;48.402;9.990;2023-09-08T01:07:07;15.00;99.90
7016;DHT22;3548;48.402;9.990;2023-09-08T01:09:34;15.00;99.90
7016;DHT22;3548;48.402;9.990;2023-09-08T01:12:05;15.00;99.90
7016;DHT22;3548;48.402;9.990;2023-09-08T01:14:31;14.90;99.90
7016;DHT22;3548;48.402;9.990;2023-09-08T01:16:57;14.90;99.90
7016;DHT22;3548;48.402;9.990;2023-09-08T01:19:22;14.80;99.90
7016;DHT22;3548;48.402;9.990;2023-09-08T01:27:29;14.80;99.90
7016;DHT22;3548;48.402;9.990;2023-09-08T01:29:56;14.70;99.90
7016;DHT22;3548;48.402;9.990;2023-09-08T01:32:22;14.70;99.90
7016;DHT22;3548;48.402;9.990;2023-09-08T01:34:48;14.70;99.90
7016;DHT22;3548;48.402;9.990;2023-09-08T01:37:14;14.70;99.90
7016;DHT22;3548;48.402;9.990;2023-09-08T01:39:39;14.60;99.90
7016;DHT22;3548;48.402;9.990;2023-09-08T01:42:05;14.60;99.90
7016;DHT22;3548;48.402;9.990;2023-09-08T01:44:31;14.60;99.90
7016;DHT22;3548;48.402;9.990;2023-09-08T01:46:56;14.60;99.90
7016;DHT22;3548;48.402;9.990;2023-09-08T01:49:23;14.50;99.90
7016;DHT22;3548;48.402;9.990;2023-09-08T01:51:48;14.50;99.90
7016;DHT22;3548;48.402;9.990;2023-09-08T01:54:14;14.50;99.90
7016;DHT22;3548;48.402;9.990;2023-09-08T01:56:40;14.40;99.90
7016;DHT22;3548;48.402;9.990;2023-09-08T01:59:05;14.40;99.90
7016;DHT22;3548;48.402;9.990;2023-09-08T02:01:31;14.40;99.90
7016;DHT22;3548;48.402;9.990;2023-09-08T02:03:56;14.40;99.90
7016;DHT22;3548;48.402;9.990;2023-09-08T02:06:22;14.40;99.90
7016;DHT22;3548;48.402;9.990;2023-09-08T02:08:47;14.30;99.90
7016;DHT22;3548;48.402;9.990;2023-09-08T02:11:13;14.30;99.90
7016;DHT22;3548;48.402;9.990;2023-09-08T02:13:41;14.30;99.90
7016;DHT22;3548;48.402;9.990;2023-09-08T02:16:07;14.30;99.90
7016;DHT22;3548;48.402;9.990;2023-09-08T02:18:33;14.20;99.90
7016;DHT22;3548;48.402;9.990;2023-09-08T02:20:58;14.20;99.90
7016;DHT22;3548;48.402;9.990;2023-09-08T02:23:24;14.20;99.90
7016;DHT22;3548;48.402;9.990;2023-09-08T02:25:49;14.20;99.90
7016;DHT22;3548;48.402;9.990;2023-09-08T02:28:15;14.20;99.90
7016;DHT22;3548;48.402;9.990;2023-09-08T02:30:40;14.10;99.90
7016;DHT22;3548;48.402;9.990;2023-09-08T02:33:06;14.10;99.90
7016;DHT22;3548;48.402;9.990;2023-09-08T02:35:37;14.10;99.90
7016;DHT22;3548;48.402;9.990;2023-09-08T02:38:04;14.10;99.90
7016;DHT22;3548;48.402;9.990;2023-09-08T02:40:29;14.10;99.90
7016;DHT22;3548;48.402;9.990;2023-09-08T02:42:55;14.10;99.90
7016;DHT22;3548;48.402;9.990;2023-09-08T02:45:20;14.10;99.90
7016;DHT22;3548;48.402;9.990;2023-09-08T02:47:46;14.10;99.90
7016;DHT22;3548;48.402;9.990;2023-09-08T02:50:11;14.00;99.90
7016;DHT22;3548;48.402;9.990;2023-09-08T02:52:37;14.00;99.90
7016;DHT22;3548;48.402;9.990;2023-09-08T02:55:02;14.00;99.90
7016;DHT22;3548;48.402;9.990;2023-09-08T02:57:28;14.00;99.90
7016;DHT22;3548;48.402;9.990;2023-09-08T02:59:54;14.00;99.90
7016;DHT22;3548;48.402;9.990;2023-09-08T03:02:23;13.90;99.90
7016;DHT22;3548;48.402;9.990;2023-09-08T03:04:48;14.00;99.90
7016;DHT22;3548;48.402;9.990;2023-09-08T03:07:14;13.90;99.90
7016;DHT22;3548;48.402;9.990;2023-09-08T03:09:39;13.90;99.90
7016;DHT22;3548;48.402;9.990;2023-09-08T03:12:05;13.90;99.90
7016;DHT22;3548;48.402;9.990;2023-09-08T03:14:31;13.90;99.90
7016;DHT22;3548;48.402;9.990;2023-09-08T03:16:57;13.90;99.90
7016;DHT22;3548;48.402;9.990;2023-09-08T03:19:23;13.80;99.90
7016;DHT22;3548;48.402;9.990;2023-09-08T03:21:48;13.80;99.90
7016;DHT22;3548;48.402;9.990;2023-09-08T03:24:14;13.80;99.90
7016;DHT22;3548;48.402;9.990;2023-09-08T03:26:39;13.80;99.90
7016;DHT22;3548;48.402;9.990;2023-09-08T03:29:06;13.80;99.90
7016;DHT22;3548;48.402;9.990;2023-09-08T03:31:32;13.80;99.90
7016;DHT22;3548;48.402;9.990;2023-09-08T03:33:57;13.80;99.90
7016;DHT22;3548;48.402;9.990;2023-09-08T03:36:23;13.80;99.90
7016;DHT22;3548;48.402;9.990;2023-09-08T03:38:50;13.70;99.90
7016;DHT22;3548;48.402;9.990;2023-09-08T03:41:15;13.70;99.90
7016;DHT22;3548;48.402;9.990;2023-09-08T03:43:41;13.70;99.90
7016;DHT22;3548;48.402;9.990;2023-09-08T03:46:07;13.70;99.90
7016;DHT22;3548;48.402;9.990;2023-09-08T03:48:33;13.70;99.90
7016;DHT22;3548;48.402;9.990;2023-09-08T03:50:58;13.70;99.90
7016;DHT22;3548;48.402;9.990;2023-09-08T03:53:24;13.70;99.90
7016;DHT22;3548;48.402;9.990;2023-09-08T03:55:49;13.60;99.90
7016;DHT22;3548;48.402;9.990;2023-09-08T03:58:15;13.60;99.90
7016;DHT22;3548;48.402;9.990;2023-09-08T04:00:42;13.60;99.90
7016;DHT22;3548;48.402;9.990;2023-09-08T04:03:08;13.60;99.90
7016;DHT22;3548;48.402;9.990;2023-09-08T04:05:35;13.50;99.90
7016;DHT22;3548;48.402;9.990;2023-09-08T04:08:00;13.50;99.90
7016;DHT22;3548;48.402;9.990;2023-09-08T04:10:26;13.50;99.90
7016;DHT22;3548;48.402;9.990;2023-09-08T04:12:52;13.40;99.90
7016;DHT22;3548;48.402;9.990;2023-09-08T04:15:17;13.40;99.90
7016;DHT22;3548;48.402;9.990;2023-09-08T04:17:43;13.40;99.90
7016;DHT22;3548;48.402;9.990;2023-09-08T04:20:09;13.40;99.90
7016;DHT22;3548;48.402;9.990;2023-09-08T04:22:34;13.40;99.90
7016;DHT22;3548;48.402;9.990;2023-09-08T04:25:01;13.40;99.90
7016;DHT22;3548;48.402;9.990;2023-09-08T04:27:26;13.40;99.90
7016;DHT22;3548;48.402;9.990;2023-09-08T04:29:52;13.40;99.90
7016;DHT22;3548;48.402;9.990;2023-09-08T04:32:18;13.40;99.90
7016;DHT22;3548;48.402;9.990;2023-09-08T04:34:43;13.40;99.90
7016;DHT22;3548;48.402;9.990;2023-09-08T04:37:09;13.40;99.90
7016;DHT22;3548;48.402;9.990;2023-09-08T04:39:35;13.40;99.90
7016;DHT22;3548;48.402;9.990;2023-09-08T04:42:02;13.40;99.90
7016;DHT22;3548;48.402;9.990;2023-09-08T04:44:28;13.40;99.90
7016;DHT22;3548;48.402;9.990;2023-09-08T04:46:54;13.30;99.90
7016;DHT22;3548;48.402;9.990;2023-09-08T04:49:19;13.30;99.90
7016;DHT22;3548;48.402;9.990;2023-09-08T04:51:45;13.30;99.90
7016;DHT22;3548;48.402;9.990;2023-09-08T04:54:11;13.30;99.90
7016;DHT22;3548;48.402;9.990;2023-09-08T04:56:37;13.30;99.90
7016;DHT22;3548;48.402;9.990;2023-09-08T04:59:03;13.30;99.90
7016;DHT22;3548;48.402;9.990;2023-09-08T05:01:29;13.30;99.90
7016;DHT22;3548;48.402;9.990;2023-09-08T05:03:58;13.30;99.90
7016;DHT22;3548;48.402;9.990;2023-09-08T05:06:24;13.40;99.90
7016;DHT22;3548;48.402;9.990;2023-09-08T05:08:50;13.40;99.90
7016;DHT22;3548;48.402;9.990;2023-09-08T05:11:16;13.40;99.90
7016;DHT22;3548;48.402;9.990;2023-09-08T05:13:42;13.40;99.90
7016;DHT22;3548;48.402;9.990;2023-09-08T05:16:08;13.50;99.90
7016;DHT22;3548;48.402;9.990;2023-09-08T05:18:40;13.50;99.90
7016;DHT22;3548;48.402;9.990;2023-09-08T05:21:07;13.60;99.90
7016;DHT22;3548;48.402;9.990;2023-09-08T05:23:33;13.60;99.90
7016;DHT22;3548;48.402;9.990;2023-09-08T05:26:00;13.70;99.90
7016;DHT22;3548;48.402;9.990;2023-09-08T05:28:25;13.70;99.90
7016;DHT22;3548;48.402;9.990;2023-09-08T05:30:52;13.80;99.90
7016;DHT22;3548;48.402;9.990;2023-09-08T05:33:17;13.80;99.90
7016;DHT22;3548;48.402;9.990;2023-09-08T05:35:44;13.90;99.90
7016;DHT22;3548;48.402;9.990;2023-09-08T05:38:10;14.00;99.90
7016;DHT22;3548;48.402;9.990;2023-09-08T05:40:35;14.00;99.90
7016;DHT22;3548;48.402;9.990;2023-09-08T05:43:01;14.10;99.90
7016;DHT22;3548;48.402;9.990;2023-09-08T05:45:27;14.20;99.90
7016;DHT22;3548;48.402;9.990;2023-09-08T05:47:53;14.20;99.90
7016;DHT22;3548;48.402;9.990;2023-09-08T05:50:18;14.30;99.90
7016;DHT22;3548;48.402;9.990;2023-09-08T05:52:44;14.40;99.90
7016;DHT22;3548;48.402;9.990;2023-09-08T05:55:10;14.50;99.90
7016;DHT22;3548;48.402;9.990;2023-09-08T05:57:36;14.50;99.90
7016;DHT22;3548;48.402;9.990;2023-09-08T06:00:05;14.60;99.90
7016;DHT22;3548;48.402;9.990;2023-09-08T06:02:31;14.70;99.90
7016;DHT22;3548;48.402;9.990;2023-09-08T06:04:56;14.70;99.90
7016;DHT22;3548;48.402;9.990;2023-09-08T06:07:22;14.80;99.90
7016;DHT22;3548;48.402;9.990;2023-09-08T06:09:48;15.00;99.90
7016;DHT22;3548;48.402;9.990;2023-09-08T06:12:13;15.00;99.90
7016;DHT22;3548;48.402;9.990;2023-09-08T06:14:39;15.10;99.90
7016;DHT22;3548;48.402;9.990;2023-09-08T06:17:04;15.20;99.90
7016;DHT22;3548;48.402;9.990;2023-09-08T06:19:30;15.30;99.90
7016;DHT22;3548;48.402;9.990;2023-09-08T06:21:55;15.30;99.90
7016;DHT22;3548;48.402;9.990;2023-09-08T06:24:21;15.40;99.90
7016;DHT22;3548;48.402;9.990;2023-09-08T06:26:48;15.50;99.90
7016;DHT22;3548;48.402;9.990;2023-09-08T06:29:15;15.60;99.90
7016;DHT22;3548;48.402;9.990;2023-09-08T06:31:40;15.80;99.90
7016;DHT22;3548;48.402;9.990;2023-09-08T06:34:06;15.90;99.90
7016;DHT22;3548;48.402;9.990;2023-09-08T06:36:31;16.00;99.90
7016;DHT22;3548;48.402;9.990;2023-09-08T06:38:57;16.20;99.90
7016;DHT22;3548;48.402;9.990;2023-09-08T06:41:23;16.30;99.90
7016;DHT22;3548;48.402;9.990;2023-09-08T06:43:49;16.40;99.90
7016;DHT22;3548;48.402;9.990;2023-09-08T06:46:15;16.50;99.90
7016;DHT22;3548;48.402;9.990;2023-09-08T06:48:40;16.70;99.90
7016;DHT22;3548;48.402;9.990;2023-09-08T06:51:07;16.80;99.90
7016;DHT22;3548;48.402;9.990;2023-09-08T06:53:32;17.00;99.90
7016;DHT22;3548;48.402;9.990;2023-09-08T06:55:58;17.10;99.90
7016;DHT22;3548;48.402;9.990;2023-09-08T06:58:24;17.30;99.90
7016;DHT22;3548;48.402;9.990;2023-09-08T07:00:50;17.40;99.90
7016;DHT22;3548;48.402;9.990;2023-09-08T07:03:22;17.60;99.90
7016;DHT22;3548;48.402;9.990;2023-09-08T07:05:52;17.70;99.90
7016;DHT22;3548;48.402;9.990;2023-09-08T07:08:17;17.90;99.90
7016;DHT22;3548;48.402;9.990;2023-09-08T07:10:44;18.00;99.90
7016;DHT22;3548;48.402;9.990;2023-09-08T07:13:09;18.20;99.90
7016;DHT22;3548;48.402;9.990;2023-09-08T07:15:35;18.30;99.90
7016;DHT22;3548;48.402;9.990;2023-09-08T07:18:01;18.40;99.90
7016;DHT22;3548;48.402;9.990;2023-09-08T07:20:26;18.40;99.90
7016;DHT22;3548;48.402;9.990;2023-09-08T07:22:52;18.60;99.90
7016;DHT22;3548;48.402;9.990;2023-09-08T07:25:17;18.70;99.90
7016;DHT22;3548;48.402;9.990;2023-09-08T07:27:43;18.70;99.90
7016;DHT22;3548;48.402;9.990;2023-09-08T07:30:09;18.80;99.90
7016;DHT22;3548;48.402;9.990;2023-09-08T07:32:34;19.00;99.90
7016;DHT22;3548;48.402;9.990;2023-09-08T07:35:00;19.10;99.90
7016;DHT22;3548;48.402;9.990;2023-09-08T07:37:27;19.20;99.90
7016;DHT22;3548;48.402;9.990;2023-09-08T07:39:52;19.20;99.90
7016;DHT22;3548;48.402;9.990;2023-09-08T07:42:18;19.30;99.90
7016;DHT22;3548;48.402;9.990;2023-09-08T07:44:44;19.40;99.90
7016;DHT22;3548;48.402;9.990;2023-09-08T07:47:10;19.50;99.90
7016;DHT22;3548;48.402;9.990;2023-09-08T07:49:36;19.60;99.90
7016;DHT22;3548;48.402;9.990;2023-09-08T07:52:02;19.60;99.90
7016;DHT22;3548;48.402;9.990;2023-09-08T07:54:29;19.70;99.90
7016;DHT22;3548;48.402;9.990;2023-09-08T07:56:55;19.80;99.90
7016;DHT22;3548;48.402;9.990;2023-09-08T07:59:20;19.90;99.90
7016;DHT22;3548;48.402;9.990;2023-09-08T08:01:46;19.90;99.90
7016;DHT22;3548;48.402;9.990;2023-09-08T08:04:12;20.00;99.90
7016;DHT22;3548;48.402;9.990;2023-09-08T08:06:37;20.00;99.90
7016;DHT22;3548;48.402;9.990;2023-09-08T08:09:03;20.10;99.90
7016;DHT22;3548;48.402;9.990;2023-09-08T08:11:29;20.20;99.90
7016;DHT22;3548;48.402;9.990;2023-09-08T08:13:54;20.30;99.90
7016;DHT22;3548;48.402;9.990;2023-09-08T08:16:22;20.40;99.90
7016;DHT22;3548;48.402;9.990;2023-09-08T08:18:48;20.60;99.90
7016;DHT22;3548;48.402;9.990;2023-09-08T08:21:13;20.70;99.90
7016;DHT22;3548;48.402;9.990;2023-09-08T08:23:42;20.80;99.90
7016;DHT22;3548;48.402;9.990;2023-09-08T08:26:08;20.90;99.90
7016;DHT22;3548;48.402;9.990;2023-09-08T08:28:34;21.00;99.90
7016;DHT22;3548;48.402;9.990;2023-09-08T08:30:59;21.00;99.90
7016;DHT22;3548;48.402;9.990;2023-09-08T08:33:25;21.10;99.90
7016;DHT22;3548;48.402;9.990;2023-09-08T08:35:54;21.30;99.90
7016;DHT22;3548;48.402;9.990;2023-09-08T08:38:20;21.40;99.90
7016;DHT22;3548;48.402;9.990;2023-09-08T08:40:47;21.50;99.90
7016;DHT22;3548;48.402;9.990;2023-09-08T08:43:13;21.50;99.90
7016;DHT22;3548;48.402;9.990;2023-09-08T08:45:41;21.60;99.90
7016;DHT22;3548;48.402;9.990;2023-09-08T08:48:07;21.70;99.90
7016;DHT22;3548;48.402;9.990;2023-09-08T08:50:35;21.80;99.90
7016;DHT22;3548;48.402;9.990;2023-09-08T08:53:01;21.90;99.90
7016;DHT22;3548;48.402;9.990;2023-09-08T08:55:29;22.00;99.90
7016;DHT22;3548;48.402;9.990;2023-09-08T08:58:03;22.20;99.90
7016;DHT22;3548;48.402;9.990;2023-09-08T09:00:29;22.30;99.90
7016;DHT22;3548;48.402;9.990;2023-09-08T09:02:55;22.40;99.90
7016;DHT22;3548;48.402;9.990;2023-09-08T09:05:24;22.50;99.90
7016;DHT22;3548;48.402;9.990;2023-09-08T09:07:50;22.60;99.90
7016;DHT22;3548;48.402;9.990;2023-09-08T09:10:17;22.70;99.90
7016;DHT22;3548;48.402;9.990;2023-09-08T09:12:43;22.70;99.90
7016;DHT22;3548;48.402;9.990;2023-09-08T09:15:09;22.90;99.90
7016;DHT22;3548;48.402;9.990;2023-09-08T09:17:35;23.00;99.90
7016;DHT22;3548;48.402;9.990;2023-09-08T09:20:20;23.10;99.90
7016;DHT22;3548;48.402;9.990;2023-09-08T09:22:49;23.20;99.90
7016;DHT22;3548;48.402;9.990;2023-09-08T09:25:27;23.20;99.90
7016;DHT22;3548;48.402;9.990;2023-09-08T09:27:58;23.10;99.80
7016;DHT22;3548;48.402;9.990;2023-09-08T09:30:25;23.20;99.90
7016;DHT22;3548;48.402;9.990;2023-09-08T09:33:04;23.30;99.90
7016;DHT22;3548;48.402;9.990;2023-09-08T09:36:02;23.40;99.90
7016;DHT22;3548;48.402;9.990;2023-09-08T09:38:28;23.50;99.90
7016;DHT22;3548;48.402;9.990;2023-09-08T09:40:55;23.60;99.60
7016;DHT22;3548;48.402;9.990;2023-09-08T09:43:22;23.60;99.40
7016;DHT22;3548;48.402;9.990;2023-09-08T09:45:50;23.70;99.60
7016;DHT22;3548;48.402;9.990;2023-09-08T09:48:19;23.80;99.40
7016;DHT22;3548;48.402;9.990;2023-09-08T09:50:46;23.80;98.90
7016;DHT22;3548;48.402;9.990;2023-09-08T09:53:13;23.90;99.00
7016;DHT22;3548;48.402;9.990;2023-09-08T09:55:44;23.90;99.00
7016;DHT22;3548;48.402;9.990;2023-09-08T09:58:10;24.00;99.00
7016;DHT22;3548;48.402;9.990;2023-09-08T10:00:36;24.10;98.70
7016;DHT22;3548;48.402;9.990;2023-09-08T10:03:04;24.20;98.50
7016;DHT22;3548;48.402;9.990;2023-09-08T10:05:30;24.30;98.10
7016;DHT22;3548;48.402;9.990;2023-09-08T10:07:56;24.30;97.70
7016;DHT22;3548;48.402;9.990;2023-09-08T10:10:23;24.40;98.10
7016;DHT22;3548;48.402;9.990;2023-09-08T10:12:52;24.50;98.00
7016;DHT22;3548;48.402;9.990;2023-09-08T10:15:21;24.60;97.70
7016;DHT22;3548;48.402;9.990;2023-09-08T10:17:52;24.80;97.70
7016;DHT22;3548;48.402;9.990;2023-09-08T10:20:19;24.80;96.90
7016;DHT22;3548;48.402;9.990;2023-09-08T10:22:54;24.80;97.40
7016;DHT22;3548;48.402;9.990;2023-09-08T10:25:21;24.90;97.30
7016;DHT22;3548;48.402;9.990;2023-09-08T10:27:47;25.00;97.40
7016;DHT22;3548;48.402;9.990;2023-09-08T10:30:13;25.00;97.20
7016;DHT22;3548;48.402;9.990;2023-09-08T10:32:40;25.20;97.30
7016;DHT22;3548;48.402;9.990;2023-09-08T10:35:07;25.30;96.90
7016;DHT22;3548;48.402;9.990;2023-09-08T10:37:33;25.20;96.70
7016;DHT22;3548;48.402;9.990;2023-09-08T10:40:21;25.20;96.80
7016;DHT22;3548;48.402;9.990;2023-09-08T10:42:47;25.30;97.10
7016;DHT22;3548;48.402;9.990;2023-09-08T10:45:19;25.30;97.00
7016;DHT22;3548;48.402;9.990;2023-09-08T10:50:18;25.30;97.00
7016;DHT22;3548;48.402;9.990;2023-09-08T10:52:45;25.40;97.10
7016;DHT22;3548;48.402;9.990;2023-09-08T10:55:35;25.40;96.90
7016;DHT22;3548;48.402;9.990;2023-09-08T10:58:03;25.60;97.30
7016;DHT22;3548;48.402;9.990;2023-09-08T11:00:46;25.70;96.40
7016;DHT22;3548;48.402;9.990;2023-09-08T11:03:12;25.70;96.60
7016;DHT22;3548;48.402;9.990;2023-09-08T11:05:39;25.70;96.60
7016;DHT22;3548;48.402;9.990;2023-09-08T11:08:04;25.70;96.70
7016;DHT22;3548;48.402;9.990;2023-09-08T11:10:30;25.80;96.60
7016;DHT22;3548;48.402;9.990;2023-09-08T11:12:56;25.90;96.50
7016;DHT22;3548;48.402;9.990;2023-09-08T11:15:22;25.90;96.60
7016;DHT22;3548;48.402;9.990;2023-09-08T11:17:49;25.90;96.50
7016;DHT22;3548;48.402;9.990;2023-09-08T11:20:25;26.00;96.50
7016;DHT22;3548;48.402;9.990;2023-09-08T11:22:51;26.00;96.40
7016;DHT22;3548;48.402;9.990;2023-09-08T11:25:17;26.00;96.50
7016;DHT22;3548;48.402;9.990;2023-09-08T11:27:42;26.10;96.80
7016;DHT22;3548;48.402;9.990;2023-09-08T11:30:11;26.20;96.50
7016;DHT22;3548;48.402;9.990;2023-09-08T11:32:38;26.30;96.50
7016;DHT22;3548;48.402;9.990;2023-09-08T11:35:05;26.40;96.60
7016;DHT22;3548;48.402;9.990;2023-09-08T11:37:37;26.60;96.50
7016;DHT22;3548;48.402;9.990;2023-09-08T11:40:04;26.70;96.10
7016;DHT22;3548;48.402;9.990;2023-09-08T11:42:34;26.70;96.30
7016;DHT22;3548;48.402;9.990;2023-09-08T11:45:00;26.70;96.30
7016;DHT22;3548;48.402;9.990;2023-09-08T11:47:25;26.80;96.40
7016;DHT22;3548;48.402;9.990;2023-09-08T11:49:52;26.80;95.90
7016;DHT22;3548;48.402;9.990;2023-09-08T11:52:18;26.90;96.20
7016;DHT22;3548;48.402;9.990;2023-09-08T11:54:44;27.00;96.00
7016;DHT22;3548;48.402;9.990;2023-09-08T11:57:10;27.00;96.00
7016;DHT22;3548;48.402;9.990;2023-09-08T11:59:38;27.10;95.90
7016;DHT22;3548;48.402;9.990;2023-09-08T12:02:04;27.20;96.00
7016;DHT22;3548;48.402;9.990;2023-09-08T12:04:30;27.10;95.70
7016;DHT22;3548;48.402;9.990;2023-09-08T12:07:00;27.10;95.70
7016;DHT22;3548;48.402;9.990;2023-09-08T12:09:25;27.00;95.70
7016;DHT22;3548;48.402;9.990;2023-09-08T12:11:51;27.10;96.10
7016;DHT22;3548;48.402;9.990;2023-09-08T12:14:16;27.20;96.00
7016;DHT22;3548;48.402;9.990;2023-09-08T12:16:42;27.40;95.80
7016;DHT22;3548;48.402;9.990;2023-09-08T12:19:11;27.60;95.70
7016;DHT22;3548;48.402;9.990;2023-09-08T12:21:59;27.70;95.30
7016;DHT22;3548;48.402;9.990;2023-09-08T12:24:56;27.80;94.90
7016;DHT22;3548;48.402;9.990;2023-09-08T12:27:27;27.60;94.50
7016;DHT22;3548;48.402;9.990;2023-09-08T12:29:54;27.40;94.70
7016;DHT22;3548;48.402;9.990;2023-09-08T12:32:20;27.40;94.80
7016;DHT22;3548;48.402;9.990;2023-09-08T12:34:46;27.40;94.90
7016;DHT22;3548;48.402;9.990;2023-09-08T12:37:11;27.50;94.70
7016;DHT22;3548;48.402;9.990;2023-09-08T12:39:38;27.60;94.80
7016;DHT22;3548;48.402;9.990;2023-09-08T12:42:04;27.70;94.90
7016;DHT22;3548;48.402;9.990;2023-09-08T12:44:30;27.80;94.60
7016;DHT22;3548;48.402;9.990;2023-09-08T12:46:55;27.90;94.40
7016;DHT22;3548;48.402;9.990;2023-09-08T12:49:21;28.10;94.30
7016;DHT22;3548;48.402;9.990;2023-09-08T12:51:46;28.20;94.10
7016;DHT22;3548;48.402;9.990;2023-09-08T12:54:12;28.30;94.00
7016;DHT22;3548;48.402;9.990;2023-09-08T12:56:37;28.30;93.60
7016;DHT22;3548;48.402;9.990;2023-09-08T12:59:03;28.30;93.50
7016;DHT22;3548;48.402;9.990;2023-09-08T13:01:29;28.20;93.30
7016;DHT22;3548;48.402;9.990;2023-09-08T13:03:54;28.20;93.20
7016;DHT22;3548;48.402;9.990;2023-09-08T13:06:20;28.20;93.10
7016;DHT22;3548;48.402;9.990;2023-09-08T13:08:45;28.10;93.50
7016;DHT22;3548;48.402;9.990;2023-09-08T13:11:11;28.10;93.10
7016;DHT22;3548;48.402;9.990;2023-09-08T13:13:36;28.00;92.80
7016;DHT22;3548;48.402;9.990;2023-09-08T13:16:02;28.00;92.80
7016;DHT22;3548;48.402;9.990;2023-09-08T13:18:28;28.10;92.50
7016;DHT22;3548;48.402;9.990;2023-09-08T13:20:56;28.10;92.60
7016;DHT22;3548;48.402;9.990;2023-09-08T13:23:21;28.10;92.90
7016;DHT22;3548;48.402;9.990;2023-09-08T13:25:47;28.20;93.10
7016;DHT22;3548;48.402;9.990;2023-09-08T13:28:12;28.10;92.30
7016;DHT22;3548;48.402;9.990;2023-09-08T13:30:38;28.20;92.30
7016;DHT22;3548;48.402;9.990;2023-09-08T13:33:04;28.20;92.30
7016;DHT22;3548;48.402;9.990;2023-09-08T13:35:29;28.20;92.10
7016;DHT22;3548;48.402;9.990;2023-09-08T13:37:55;28.10;92.30
7016;DHT22;3548;48.402;9.990;2023-09-08T13:40:20;28.20;92.20
7016;DHT22;3548;48.402;9.990;2023-09-08T13:42:46;28.20;92.00
7016;DHT22;3548;48.402;9.990;2023-09-08T13:45:12;28.30;91.90
7016;DHT22;3548;48.402;9.990;2023-09-08T13:47:38;28.20;91.70
7016;DHT22;3548;48.402;9.990;2023-09-08T13:50:04;28.10;91.70
7016;DHT22;3548;48.402;9.990;2023-09-08T13:52:30;28.20;91.90
7016;DHT22;3548;48.402;9.990;2023-09-08T13:54:55;28.30;92.00
7016;DHT22;3548;48.402;9.990;2023-09-08T13:57:21;28.30;91.50
7016;DHT22;3548;48.402;9.990;2023-09-08T13:59:46;28.20;91.50
7016;DHT22;3548;48.402;9.990;2023-09-08T14:02:12;28.20;91.80
7016;DHT22;3548;48.402;9.990;2023-09-08T14:04:38;28.20;91.50
7016;DHT22;3548;48.402;9.990;2023-09-08T14:07:05;28.20;91.70
7016;DHT22;3548;48.402;9.990;2023-09-08T14:09:31;28.20;91.90
7016;DHT22;3548;48.402;9.990;2023-09-08T14:11:56;28.20;91.80
7016;DHT22;3548;48.402;9.990;2023-09-08T14:14:22;28.30;91.40
7016;DHT22;3548;48.402;9.990;2023-09-08T14:16:49;28.20;91.90
7016;DHT22;3548;48.402;9.990;2023-09-08T14:19:15;28.30;92.10
7016;DHT22;3548;48.402;9.990;2023-09-08T14:21:40;28.40;92.10
7016;DHT22;3548;48.402;9.990;2023-09-08T14:24:06;28.40;91.10
7016;DHT22;3548;48.402;9.990;2023-09-08T14:26:32;28.40;90.90
7016;DHT22;3548;48.402;9.990;2023-09-08T14:28:57;28.40;90.50
7016;DHT22;3548;48.402;9.990;2023-09-08T14:31:23;28.30;90.80
7016;DHT22;3548;48.402;9.990;2023-09-08T14:33:49;28.30;91.00
7016;DHT22;3548;48.402;9.990;2023-09-08T14:36:18;28.30;91.20
7016;DHT22;3548;48.402;9.990;2023-09-08T14:38:44;28.40;91.10
7016;DHT22;3548;48.402;9.990;2023-09-08T14:41:10;28.40;91.20
7016;DHT22;3548;48.402;9.990;2023-09-08T14:43:35;28.40;90.70
7016;DHT22;3548;48.402;9.990;2023-09-08T14:46:01;28.30;91.00
7016;DHT22;3548;48.402;9.990;2023-09-08T14:48:29;28.30;91.00
7016;DHT22;3548;48.402;9.990;2023-09-08T14:50:55;28.30;90.90
7016;DHT22;3548;48.402;9.990;2023-09-08T14:53:20;28.30;91.00
7016;DHT22;3548;48.402;9.990;2023-09-08T14:55:46;28.30;91.10
7016;DHT22;3548;48.402;9.990;2023-09-08T14:58:16;28.30;91.10
7016;DHT22;3548;48.402;9.990;2023-09-08T15:00:42;28.30;91.30
7016;DHT22;3548;48.402;9.990;2023-09-08T15:03:09;28.30;91.20
7016;DHT22;3548;48.402;9.990;2023-09-08T15:05:35;28.20;91.00
7016;DHT22;3548;48.402;9.990;2023-09-08T15:08:01;28.20;91.10
7016;DHT22;3548;48.402;9.990;2023-09-08T15:10:27;28.20;91.10
7016;DHT22;3548;48.402;9.990;2023-09-08T15:12:54;28.30;91.20
7016;DHT22;3548;48.402;9.990;2023-09-08T15:15:20;28.30;90.80
7016;DHT22;3548;48.402;9.990;2023-09-08T15:17:51;28.20;90.80
7016;DHT22;3548;48.402;9.990;2023-09-08T15:20:16;28.20;90.90
7016;DHT22;3548;48.402;9.990;2023-09-08T15:22:42;28.30;90.90
7016;DHT22;3548;48.402;9.990;2023-09-08T15:25:08;28.30;90.90
7016;DHT22;3548;48.402;9.990;2023-09-08T15:27:33;28.30;90.60
7016;DHT22;3548;48.402;9.990;2023-09-08T15:29:59;28.30;90.70
7016;DHT22;3548;48.402;9.990;2023-09-08T15:32:25;28.30;90.80
7016;DHT22;3548;48.402;9.990;2023-09-08T15:34:52;28.30;91.00
7016;DHT22;3548;48.402;9.990;2023-09-08T15:37:18;28.20;91.10
7016;DHT22;3548;48.402;9.990;2023-09-08T15:39:43;28.20;91.30
7016;DHT22;3548;48.402;9.990;2023-09-08T15:42:11;28.10;91.40
7016;DHT22;3548;48.402;9.990;2023-09-08T15:44:37;28.00;91.40
7016;DHT22;3548;48.402;9.990;2023-09-08T15:47:02;28.00;91.60
7016;DHT22;3548;48.402;9.990;2023-09-08T15:49:28;28.00;91.50
7016;DHT22;3548;48.402;9.990;2023-09-08T15:51:54;28.00;91.40
7016;DHT22;3548;48.402;9.990;2023-09-08T15:54:19;28.00;91.60
7016;DHT22;3548;48.402;9.990;2023-09-08T15:56:46;27.90;91.90
7016;DHT22;3548;48.402;9.990;2023-09-08T15:59:16;27.90;91.90
7016;DHT22;3548;48.402;9.990;2023-09-08T16:01:42;27.80;91.90
7016;DHT22;3548;48.402;9.990;2023-09-08T16:04:08;27.70;92.20
7016;DHT22;3548;48.402;9.990;2023-09-08T16:06:38;27.70;92.40